createdAt,value
2016-11-18T00:00:09.785Z,987.56
2016-11-18T00:01:26.148Z,987.57
2016-11-18T00:02:42.903Z,987.53
2016-11-18T00:03:59.183Z,987.48
2016-11-18T00:05:15.674Z,987.52
2016-11-18T00:06:32.214Z,987.51
2016-11-18T00:07:49.191Z,987.59
2016-11-18T00:09:05.877Z,987.47
2016-11-18T00:10:23.337Z,987.52
2016-11-18T00:11:39.500Z,987.47
2016-11-18T00:12:54.619Z,987.43
2016-11-18T00:14:10.652Z,987.38
2016-11-18T00:15:25.504Z,987.36
2016-11-18T00:16:41.656Z,987.3
2016-11-18T00:17:58.526Z,987.23
2016-11-18T00:19:13.944Z,987.22
2016-11-18T00:20:30.258Z,987.21
2016-11-18T00:21:45.359Z,987.24
2016-11-18T00:22:58.408Z,987.08
2016-11-18T00:24:14.735Z,987.14
2016-11-18T00:25:29.004Z,987.11
2016-11-18T00:26:45.434Z,987.12
2016-11-18T00:28:01.728Z,987.16
2016-11-18T00:29:18.772Z,987.12
2016-11-18T00:30:35.233Z,987.06
2016-11-18T00:31:50.572Z,987.03
2016-11-18T00:33:06.967Z,987.09
2016-11-18T00:34:19.941Z,987.02
2016-11-18T00:35:35.761Z,986.98
2016-11-18T00:36:49.329Z,986.97
2016-11-18T00:38:04.828Z,986.98
2016-11-18T00:39:18.298Z,986.92
2016-11-18T00:40:34.249Z,986.96
2016-11-18T00:41:47.853Z,986.91
2016-11-18T00:43:03.131Z,986.87
2016-11-18T00:44:17.847Z,986.86
2016-11-18T00:45:31.262Z,986.8
2016-11-18T00:46:47.154Z,986.92
2016-11-18T00:48:03.721Z,986.89
2016-11-18T00:49:18.168Z,986.85
2016-11-18T00:50:34.318Z,986.86
2016-11-18T00:51:47.876Z,986.88
2016-11-18T00:53:03.787Z,986.98
2016-11-18T00:54:19.662Z,987.49
2016-11-18T00:55:34.748Z,987.61
2016-11-18T00:56:48.303Z,987.48
2016-11-18T00:58:03.378Z,987.38
2016-11-18T00:59:17.966Z,987.33
2016-11-18T01:00:33.079Z,987.3
2016-11-18T01:01:49.114Z,987.23
2016-11-18T01:03:03.709Z,987.45
2016-11-18T01:04:17.896Z,987.43
2016-11-18T01:05:33.049Z,987.03
2016-11-18T01:06:49.410Z,987.21
2016-11-18T01:08:04.404Z,987.58
2016-11-18T01:09:18.945Z,987.52
2016-11-18T01:10:35.844Z,987.56
2016-11-18T01:11:52.281Z,987.74
2016-11-18T01:13:06.945Z,987.45
2016-11-18T01:14:23.056Z,987.1
2016-11-18T01:15:39.605Z,987.14
2016-11-18T01:16:54.414Z,987.2
2016-11-18T01:18:10.799Z,987.09
2016-11-18T01:19:23.840Z,987.13
2016-11-18T01:20:39.723Z,987.03
2016-11-18T01:21:54.641Z,987.25
2016-11-18T01:23:09.397Z,987.39
2016-11-18T01:24:25.683Z,987.13
2016-11-18T01:25:41.080Z,987.26
2016-11-18T01:26:57.530Z,987.42
2016-11-18T01:28:12.621Z,987.42
2016-11-18T01:29:27.065Z,987.39
2016-11-18T01:30:42.126Z,987.18
2016-11-18T01:31:57.395Z,987.07
2016-11-18T01:33:12.373Z,987.16
2016-11-18T01:34:28.281Z,987.06
2016-11-18T01:35:45.435Z,986.91
2016-11-18T01:37:00.584Z,987.07
2016-11-18T01:38:16.903Z,987.06
2016-11-18T01:39:32.799Z,987.19
2016-11-18T01:40:45.933Z,987.28
2016-11-18T01:42:00.538Z,987.17
2016-11-18T01:43:16.003Z,986.93
2016-11-18T01:44:32.988Z,986.92
2016-11-18T01:45:49.931Z,987.1
2016-11-18T01:47:06.460Z,987.24
2016-11-18T01:48:20.971Z,987.07
2016-11-18T01:49:34.403Z,986.91
2016-11-18T01:50:49.494Z,987.06
2016-11-18T01:52:03.768Z,987.34
2016-11-18T01:53:18.936Z,987.3
2016-11-18T01:54:35.118Z,987.01
2016-11-18T01:55:51.406Z,987.05
2016-11-18T01:57:07.680Z,987.1
2016-11-18T01:58:23.544Z,987.13
2016-11-18T01:59:37.199Z,986.96
2016-11-18T02:00:52.438Z,986.93
2016-11-18T02:02:06.983Z,987
2016-11-18T02:03:21.726Z,986.99
2016-11-18T02:04:37.709Z,986.97
2016-11-18T02:05:51.962Z,986.96
2016-11-18T02:07:08.544Z,986.96
2016-11-18T02:08:24.745Z,986.85
2016-11-18T02:09:39.539Z,986.83
2016-11-18T02:10:56.298Z,986.79
2016-11-18T02:12:10.573Z,986.72
2016-11-18T02:13:24.993Z,986.65
2016-11-18T02:14:39.809Z,986.52
2016-11-18T02:15:55.599Z,986.52
2016-11-18T02:17:11.223Z,986.53
2016-11-18T02:18:25.938Z,986.54
2016-11-18T02:19:42.492Z,986.58
2016-11-18T02:20:57.646Z,986.79
2016-11-18T02:22:11.659Z,986.91
2016-11-18T02:23:23.203Z,986.85
2016-11-18T02:24:37.660Z,986.61
2016-11-18T02:25:51.937Z,986.38
2016-11-18T02:27:08.478Z,986.37
2016-11-18T02:28:23.219Z,986.3
2016-11-18T02:29:40.083Z,986.24
2016-11-18T02:30:55.937Z,986.35
2016-11-18T02:32:10.474Z,986.51
2016-11-18T02:33:24.695Z,986.59
2016-11-18T02:34:40.828Z,986.57
2016-11-18T02:35:57.014Z,986.56
2016-11-18T02:37:12.540Z,986.55
2016-11-18T02:38:28.695Z,986.48
2016-11-18T02:39:41.888Z,986.51
2016-11-18T02:40:56.719Z,986.51
2016-11-18T02:42:12.697Z,986.49
2016-11-18T02:43:29.071Z,986.39
2016-11-18T02:44:43.134Z,986.37
2016-11-18T02:45:59.165Z,986.45
2016-11-18T02:47:15.515Z,986.5
2016-11-18T02:48:30.731Z,986.54
2016-11-18T02:49:47.227Z,986.48
2016-11-18T02:51:04.159Z,986.43
2016-11-18T02:52:19.635Z,986.41
2016-11-18T02:53:34.886Z,986.37
2016-11-18T02:54:51.484Z,986.29
2016-11-18T02:56:04.606Z,986.08
2016-11-18T02:57:18.168Z,985.76
2016-11-18T02:58:34.331Z,985.66
2016-11-18T02:59:48.379Z,985.7
2016-11-18T03:01:00.157Z,985.87
2016-11-18T03:02:15.802Z,985.82
2016-11-18T03:03:30.866Z,985.79
2016-11-18T03:04:45.694Z,985.72
2016-11-18T03:05:59.179Z,985.71
2016-11-18T03:07:13.846Z,985.72
2016-11-18T03:08:29.326Z,985.78
2016-11-18T03:09:46.027Z,985.71
2016-11-18T03:11:01.095Z,985.61
2016-11-18T03:12:17.012Z,985.67
2016-11-18T03:13:33.007Z,985.78
2016-11-18T03:14:46.681Z,985.72
2016-11-18T03:16:01.919Z,985.65
2016-11-18T03:17:18.986Z,985.69
2016-11-18T03:18:35.423Z,985.62
2016-11-18T03:19:49.622Z,985.53
2016-11-18T03:21:05.501Z,985.53
2016-11-18T03:22:21.151Z,985.46
2016-11-18T03:23:35.216Z,985.43
2016-11-18T03:24:51.805Z,985.4
2016-11-18T03:26:07.050Z,985.4
2016-11-18T03:27:20.519Z,985.38
2016-11-18T03:28:34.832Z,985.45
2016-11-18T03:29:51.252Z,985.53
2016-11-18T03:31:06.320Z,985.53
2016-11-18T03:32:22.291Z,985.5
2016-11-18T03:33:38.855Z,985.47
2016-11-18T03:34:54.889Z,985.46
2016-11-18T03:36:11.051Z,985.49
2016-11-18T03:37:26.521Z,985.52
2016-11-18T03:38:42.399Z,985.45
2016-11-18T03:39:58.055Z,985.56
2016-11-18T03:41:13.127Z,985.59
2016-11-18T03:42:30.245Z,985.66
2016-11-18T03:43:43.779Z,985.7
2016-11-18T03:44:57.051Z,985.71
2016-11-18T03:46:12.846Z,985.66
2016-11-18T03:47:29.132Z,985.69
2016-11-18T03:48:45.160Z,985.72
2016-11-18T03:50:01.430Z,985.79
2016-11-18T03:51:14.676Z,985.79
2016-11-18T03:52:29.316Z,985.71
2016-11-18T03:53:45.006Z,985.65
2016-11-18T03:54:57.738Z,985.52
2016-11-18T03:56:12.428Z,985.44
2016-11-18T03:57:26.435Z,985.37
2016-11-18T03:58:42.391Z,985.35
2016-11-18T03:59:58.593Z,985.33
2016-11-18T04:01:14.761Z,985.38
2016-11-18T04:02:28.245Z,985.44
2016-11-18T04:03:41.234Z,985.45
2016-11-18T04:04:54.679Z,985.49
2016-11-18T04:06:09.459Z,985.28
2016-11-18T04:07:25.601Z,985.2
2016-11-18T04:08:40.454Z,985.27
2016-11-18T04:09:56.764Z,985.33
2016-11-18T04:11:11.974Z,985.47
2016-11-18T04:12:25.703Z,985.48
2016-11-18T04:13:41.262Z,985.52
2016-11-18T04:14:56.787Z,985.71
2016-11-18T04:16:11.440Z,985.77
2016-11-18T04:17:25.717Z,985.84
2016-11-18T04:18:41.795Z,985.93
2016-11-18T04:19:58.076Z,985.95
2016-11-18T04:21:14.564Z,985.89
2016-11-18T04:22:31.346Z,985.95
2016-11-18T04:23:48.053Z,986.06
2016-11-18T04:25:04.491Z,986.07
2016-11-18T04:26:17.769Z,986.08
2016-11-18T04:27:31.419Z,986.16
2016-11-18T04:28:47.666Z,986.25
2016-11-18T04:30:02.162Z,986.43
2016-11-18T04:31:18.138Z,986.59
2016-11-18T04:32:31.851Z,986.75
2016-11-18T04:33:46.474Z,987.01
2016-11-18T04:35:01.465Z,987.24
2016-11-18T04:36:15.974Z,987.23
2016-11-18T04:37:29.193Z,987.34
2016-11-18T04:38:46.040Z,987.3
2016-11-18T04:40:00.751Z,987.17
2016-11-18T04:41:15.617Z,987.11
2016-11-18T04:42:32.589Z,987.04
2016-11-18T04:43:47.648Z,986.93
2016-11-18T04:45:04.174Z,986.84
2016-11-18T04:46:17.583Z,986.8
2016-11-18T04:47:33.305Z,986.94
2016-11-18T04:48:48.743Z,987.02
2016-11-18T04:50:04.230Z,987.05
2016-11-18T04:51:19.060Z,986.89
2016-11-18T04:52:33.634Z,986.7
2016-11-18T04:53:49.666Z,986.52
2016-11-18T04:55:03.110Z,986.5
2016-11-18T04:56:17.592Z,986.61
2016-11-18T04:57:33.052Z,986.71
2016-11-18T04:58:47.728Z,986.75
2016-11-18T05:00:04.644Z,986.74
2016-11-18T05:01:16.090Z,986.59
2016-11-18T05:02:28.965Z,986.5
2016-11-18T05:03:43.662Z,986.51
2016-11-18T05:04:58.751Z,986.31
2016-11-18T05:06:12.192Z,986.15
2016-11-18T05:07:28.121Z,986.03
2016-11-18T05:08:43.430Z,986.11
2016-11-18T05:10:00.549Z,986.25
2016-11-18T05:11:14.857Z,986.45
2016-11-18T05:12:30.527Z,986.55
2016-11-18T05:13:46.722Z,986.58
2016-11-18T05:15:02.503Z,986.64
2016-11-18T05:16:17.738Z,986.73
2016-11-18T05:17:31.039Z,986.82
2016-11-18T05:18:44.732Z,986.8
2016-11-18T05:20:01.261Z,986.68
2016-11-18T05:21:17.919Z,986.65
2016-11-18T05:22:34.249Z,986.62
2016-11-18T05:23:49.169Z,986.48
2016-11-18T05:25:06.137Z,986.56
2016-11-18T05:26:22.661Z,986.63
2016-11-18T05:27:36.730Z,986.61
2016-11-18T05:28:53.651Z,986.72
2016-11-18T05:30:10.539Z,986.73
2016-11-18T05:31:25.214Z,986.64
2016-11-18T05:32:40.096Z,986.5
2016-11-18T05:33:54.914Z,986.46
2016-11-18T05:35:11.191Z,986.51
2016-11-18T05:36:25.476Z,986.57
2016-11-18T05:37:40.644Z,986.54
2016-11-18T05:38:54.625Z,986.5
2016-11-18T05:40:10.780Z,986.53
2016-11-18T05:41:27.622Z,986.49
2016-11-18T05:42:43.310Z,986.48
2016-11-18T05:43:59.335Z,986.68
2016-11-18T05:45:15.043Z,986.81
2016-11-18T05:46:29.319Z,986.98
2016-11-18T05:47:45.397Z,987.15
2016-11-18T05:49:01.430Z,987.14
2016-11-18T05:50:17.446Z,987.08
2016-11-18T05:51:31.618Z,987.01
2016-11-18T05:52:46.613Z,987.05
2016-11-18T05:54:02.160Z,986.94
2016-11-18T05:55:19.327Z,986.89
2016-11-18T05:56:36.013Z,987.02
2016-11-18T05:57:52.318Z,987.13
2016-11-18T05:59:07.600Z,987.13
2016-11-18T06:00:24.140Z,987.02
2016-11-18T06:01:36.282Z,986.84
2016-11-18T06:02:50.730Z,986.81
2016-11-18T06:04:06.140Z,986.76
2016-11-18T06:05:22.368Z,986.83
2016-11-18T06:06:38.951Z,986.92
2016-11-18T06:07:54.047Z,986.92
2016-11-18T06:09:09.952Z,986.91
2016-11-18T06:10:24.754Z,986.88
2016-11-18T06:11:39.500Z,986.89
2016-11-18T06:12:56.339Z,986.73
2016-11-18T06:14:12.242Z,986.68
2016-11-18T06:15:28.811Z,986.74
2016-11-18T06:16:44.812Z,986.8
2016-11-18T06:17:59.877Z,986.83
2016-11-18T06:19:15.371Z,986.8
2016-11-18T06:20:31.742Z,986.73
2016-11-18T06:21:47.989Z,986.74
2016-11-18T06:23:02.668Z,986.73
2016-11-18T06:24:19.243Z,986.79
2016-11-18T06:25:35.043Z,986.85
2016-11-18T06:26:48.399Z,986.87
2016-11-18T06:28:05.521Z,986.82
2016-11-18T06:29:20.037Z,986.81
2016-11-18T06:30:36.725Z,986.8
2016-11-18T06:31:51.648Z,986.82
2016-11-18T06:33:07.775Z,986.77
2016-11-18T06:34:21.840Z,986.63
2016-11-18T06:35:38.123Z,986.63
2016-11-18T06:36:52.693Z,986.66
2016-11-18T06:38:07.872Z,986.65
2016-11-18T06:39:23.355Z,986.52
2016-11-18T06:40:39.790Z,986.54
2016-11-18T06:41:55.419Z,986.65
2016-11-18T06:43:11.900Z,986.74
2016-11-18T06:44:25.657Z,986.78
2016-11-18T06:45:40.990Z,986.76
2016-11-18T06:46:55.796Z,986.78
2016-11-18T06:48:12.812Z,986.78
2016-11-18T06:49:29.125Z,986.87
2016-11-18T06:50:45.342Z,986.93
2016-11-18T06:52:00.409Z,987
2016-11-18T06:53:15.542Z,987.03
2016-11-18T06:54:30.628Z,987.16
2016-11-18T06:55:45.471Z,987.25
2016-11-18T06:56:58.865Z,987.22
2016-11-18T06:58:15.021Z,987.21
2016-11-18T06:59:30.094Z,987.11
2016-11-18T07:00:46.129Z,987.17
2016-11-18T07:02:03.238Z,987.11
2016-11-18T07:03:19.796Z,987.14
2016-11-18T07:04:34.869Z,987.11
2016-11-18T07:05:50.139Z,987.17
2016-11-18T07:07:06.741Z,987.2
2016-11-18T07:08:23.457Z,987.21
2016-11-18T07:09:39.979Z,987.16
2016-11-18T07:10:53.208Z,987.06
2016-11-18T07:12:09.335Z,987.02
2016-11-18T07:13:24.238Z,987
2016-11-18T07:14:38.883Z,986.99
2016-11-18T07:15:53.694Z,987
2016-11-18T07:17:10.083Z,986.87
2016-11-18T07:18:27.089Z,986.82
2016-11-18T07:19:43.798Z,986.82
2016-11-18T07:20:57.319Z,986.79
2016-11-18T07:22:13.432Z,986.79
2016-11-18T07:23:29.797Z,986.69
2016-11-18T07:24:46.048Z,986.58
2016-11-18T07:26:02.785Z,986.63
2016-11-18T07:27:19.237Z,986.62
2016-11-18T07:28:35.998Z,986.69
2016-11-18T07:29:52.230Z,986.75
2016-11-18T07:31:07.356Z,986.71
2016-11-18T07:32:24.029Z,986.73
2016-11-18T07:33:40.724Z,986.76
2016-11-18T07:34:54.922Z,986.85
2016-11-18T07:36:11.215Z,986.91
2016-11-18T07:37:26.779Z,986.99
2016-11-18T07:38:42.721Z,986.95
2016-11-18T07:39:58.214Z,986.96
2016-11-18T07:41:13.273Z,987
2016-11-18T07:42:27.986Z,987.04
2016-11-18T07:43:44.304Z,987.22
2016-11-18T07:44:59.816Z,987.05
2016-11-18T07:46:16.141Z,986.98
2016-11-18T07:47:29.959Z,986.99
2016-11-18T07:48:46.581Z,987.02
2016-11-18T07:50:03.536Z,987.03
2016-11-18T07:51:18.217Z,987.11
2016-11-18T07:52:34.330Z,987.14
2016-11-18T07:53:51.428Z,987.22
2016-11-18T07:55:06.655Z,987.29
2016-11-18T07:56:21.886Z,987.26
2016-11-18T07:57:38.142Z,987.24
2016-11-18T07:58:54.322Z,987.22
2016-11-18T08:00:09.475Z,987.1
2016-11-18T08:01:26.150Z,987.17
2016-11-18T08:02:42.629Z,987.15
2016-11-18T08:03:58.969Z,987.06
2016-11-18T08:05:14.017Z,987
2016-11-18T08:06:30.148Z,987.05
2016-11-18T08:07:46.423Z,987.09
2016-11-18T08:09:01.443Z,987.24
2016-11-18T08:10:16.914Z,987.41
2016-11-18T08:11:33.998Z,987.64
2016-11-18T08:12:50.726Z,987.7
2016-11-18T08:14:07.070Z,987.4
2016-11-18T08:15:21.808Z,987.36
2016-11-18T08:16:38.609Z,987.47
2016-11-18T08:17:51.785Z,987.44
2016-11-18T08:19:08.094Z,987.52
2016-11-18T08:20:23.167Z,987.56
2016-11-18T08:21:35.565Z,987.67
2016-11-18T08:22:51.453Z,987.75
2016-11-18T08:24:07.106Z,987.65
2016-11-18T08:25:22.014Z,987.57
2016-11-18T08:26:38.334Z,987.61
2016-11-18T08:27:54.849Z,987.68
2016-11-18T08:29:09.937Z,987.63
2016-11-18T08:30:24.938Z,987.71
2016-11-18T08:31:41.451Z,987.72
2016-11-18T08:32:55.483Z,987.72
2016-11-18T08:34:11.043Z,987.64
2016-11-18T08:35:28.014Z,987.48
2016-11-18T08:36:44.415Z,987.48
2016-11-18T08:38:01.155Z,987.67
2016-11-18T08:39:16.170Z,987.58
2016-11-18T08:40:30.598Z,987.68
2016-11-18T08:41:45.856Z,987.61
2016-11-18T08:43:02.698Z,987.71
2016-11-18T08:44:19.022Z,987.5
2016-11-18T08:45:35.902Z,987.59
2016-11-18T08:46:50.999Z,987.5
2016-11-18T08:48:06.917Z,987.48
2016-11-18T08:49:19.972Z,987.56
2016-11-18T08:50:35.030Z,987.82
2016-11-18T08:51:50.052Z,987.53
2016-11-18T08:53:05.143Z,987.62
2016-11-18T08:54:17.092Z,987.6
2016-11-18T08:55:33.926Z,987.57
2016-11-18T08:56:47.641Z,987.59
2016-11-18T08:58:04.016Z,987.52
2016-11-18T08:59:17.443Z,987.42
2016-11-18T09:00:32.642Z,987.41
2016-11-18T09:01:49.595Z,987.29
2016-11-18T09:03:06.299Z,987.11
2016-11-18T09:04:23.265Z,987.15
2016-11-18T09:05:36.721Z,987.33
2016-11-18T09:06:49.944Z,987.54
2016-11-18T09:08:06.107Z,987.6
2016-11-18T09:09:22.587Z,987.69
2016-11-18T09:10:39.721Z,987.83
2016-11-18T09:11:55.085Z,987.82
2016-11-18T09:13:10.684Z,987.82
2016-11-18T09:14:25.868Z,987.84
2016-11-18T09:15:41.093Z,987.87
2016-11-18T09:16:57.365Z,987.92
2016-11-18T09:18:13.539Z,988.04
2016-11-18T09:19:28.614Z,987.82
2016-11-18T09:20:44.370Z,987.74
2016-11-18T09:22:01.331Z,987.67
2016-11-18T09:23:18.055Z,987.74
2016-11-18T09:24:32.484Z,987.81
2016-11-18T09:25:47.585Z,988
2016-11-18T09:27:02.652Z,988.09
2016-11-18T09:28:16.677Z,988.16
2016-11-18T09:29:32.710Z,988.21
2016-11-18T09:30:46.664Z,988.22
2016-11-18T09:32:03.705Z,988.34
2016-11-18T09:33:20.939Z,988.34
2016-11-18T09:34:35.796Z,988.29
2016-11-18T09:35:52.497Z,988.29
2016-11-18T09:37:07.596Z,988.36
2016-11-18T09:38:23.852Z,988.45
2016-11-18T09:39:39.065Z,988.5
2016-11-18T09:40:52.785Z,988.47
2016-11-18T09:42:07.604Z,988.47
2016-11-18T09:43:21.210Z,988.5
2016-11-18T09:44:36.017Z,988.49
2016-11-18T09:45:52.349Z,988.45
2016-11-18T09:47:08.720Z,988.48
2016-11-18T09:48:24.823Z,988.46
2016-11-18T09:49:39.496Z,988.51
2016-11-18T09:50:55.645Z,988.57
2016-11-18T09:52:10.715Z,988.49
2016-11-18T09:53:25.488Z,988.49
2016-11-18T09:54:40.600Z,988.56
2016-11-18T09:55:55.729Z,988.64
2016-11-18T09:57:12.858Z,988.72
2016-11-18T09:58:29.827Z,988.68
2016-11-18T09:59:44.414Z,988.64
2016-11-18T10:01:00.944Z,988.72
2016-11-18T10:02:17.232Z,988.71
2016-11-18T10:03:30.761Z,988.73
2016-11-18T10:04:45.033Z,988.67
2016-11-18T10:06:01.455Z,988.65
2016-11-18T10:07:17.724Z,988.69
2016-11-18T10:08:34.291Z,988.81
2016-11-18T10:09:49.356Z,988.64
2016-11-18T10:11:06.064Z,988.68
2016-11-18T10:12:22.268Z,988.62
2016-11-18T10:13:38.874Z,988.74
2016-11-18T10:14:55.045Z,988.74
2016-11-18T10:16:11.806Z,988.74
2016-11-18T10:17:25.708Z,988.64
2016-11-18T10:18:41.111Z,988.54
2016-11-18T10:19:55.469Z,988.47
2016-11-18T10:21:11.138Z,988.36
2016-11-18T10:22:27.154Z,988.35
2016-11-18T10:23:42.645Z,988.34
2016-11-18T10:24:58.667Z,988.36
2016-11-18T10:26:13.496Z,988.33
2016-11-18T10:27:30.091Z,988.42
2016-11-18T10:28:45.811Z,988.46
2016-11-18T10:30:02.512Z,988.54
2016-11-18T10:31:19.380Z,988.63
2016-11-18T10:32:35.292Z,988.71
2016-11-18T10:33:50.621Z,988.63
2016-11-18T10:35:07.017Z,988.56
2016-11-18T10:36:22.135Z,988.61
2016-11-18T10:37:38.951Z,988.68
2016-11-18T10:38:53.193Z,988.78
2016-11-18T10:40:08.133Z,988.8
2016-11-18T10:41:21.530Z,988.81
2016-11-18T10:42:36.482Z,988.75
2016-11-18T10:43:51.823Z,988.7
2016-11-18T10:45:08.370Z,988.7
2016-11-18T10:46:24.820Z,988.67
2016-11-18T10:47:40.298Z,988.74
2016-11-18T10:48:55.777Z,988.81
2016-11-18T10:50:11.907Z,988.85
2016-11-18T10:51:28.210Z,988.88
2016-11-18T10:52:42.773Z,988.82
2016-11-18T10:53:59.224Z,988.9
2016-11-18T10:55:14.397Z,988.86
2016-11-18T10:56:30.068Z,988.85
2016-11-18T10:57:43.762Z,988.88
2016-11-18T10:59:00.466Z,988.91
2016-11-18T11:00:17.011Z,989.01
2016-11-18T11:01:32.906Z,989.07
2016-11-18T11:02:46.404Z,989.06
2016-11-18T11:04:02.884Z,989.04
2016-11-18T11:05:17.953Z,989.05
2016-11-18T11:06:34.623Z,989.11
2016-11-18T11:07:51.372Z,989.02
2016-11-18T11:09:08.202Z,989.06
2016-11-18T11:10:23.129Z,989.09
2016-11-18T11:11:39.475Z,988.94
2016-11-18T11:12:56.313Z,989.11
2016-11-18T11:14:10.811Z,989.1
2016-11-18T11:15:26.991Z,989.09
2016-11-18T11:16:41.746Z,989.13
2016-11-18T11:17:56.021Z,989.12
2016-11-18T11:19:12.210Z,989.06
2016-11-18T11:20:28.738Z,989.13
2016-11-18T11:21:45.497Z,988.98
2016-11-18T11:23:01.564Z,989.06
2016-11-18T11:24:17.193Z,989.12
2016-11-18T11:25:34.003Z,989.07
2016-11-18T11:26:50.459Z,989.12
2016-11-18T11:28:04.052Z,989.13
2016-11-18T11:29:18.879Z,989.19
2016-11-18T11:30:35.049Z,989.21
2016-11-18T11:31:51.850Z,989.32
2016-11-18T11:33:07.686Z,989.3
2016-11-18T11:34:23.616Z,989.23
2016-11-18T11:35:40.709Z,989.31
2016-11-18T11:36:55.358Z,989.41
2016-11-18T11:38:08.975Z,989.41
2016-11-18T11:39:22.927Z,989.38
2016-11-18T11:40:39.000Z,989.34
2016-11-18T11:41:56.119Z,989.31
2016-11-18T11:43:11.688Z,989.26
2016-11-18T11:44:28.630Z,989.32
2016-11-18T11:45:41.884Z,989.28
2016-11-18T11:46:56.830Z,989.34
2016-11-18T11:48:10.654Z,989.4
2016-11-18T11:49:27.023Z,989.48
2016-11-18T11:50:42.095Z,989.56
2016-11-18T11:51:58.814Z,989.45
2016-11-18T11:53:14.012Z,989.44
2016-11-18T11:54:29.257Z,989.43
2016-11-18T11:55:45.856Z,989.41
2016-11-18T11:57:01.018Z,989.49
2016-11-18T11:58:15.711Z,989.56
2016-11-18T11:59:32.058Z,989.48
2016-11-18T12:00:47.215Z,989.42
2016-11-18T12:02:01.962Z,989.4
2016-11-18T12:03:18.566Z,989.48
2016-11-18T12:04:33.251Z,989.46
2016-11-18T12:05:49.964Z,989.41
2016-11-18T12:07:05.419Z,989.37
2016-11-18T12:08:21.551Z,989.42
2016-11-18T12:09:38.619Z,989.36
2016-11-18T12:10:53.430Z,989.36
2016-11-18T12:12:10.426Z,989.48
2016-11-18T12:13:26.749Z,989.43
2016-11-18T12:14:42.572Z,989.46
2016-11-18T12:15:58.611Z,989.51
2016-11-18T12:17:13.457Z,989.49
2016-11-18T12:18:27.997Z,989.45
2016-11-18T12:19:44.410Z,989.46
2016-11-18T12:21:00.528Z,989.46
2016-11-18T12:22:14.092Z,989.53
2016-11-18T12:23:30.623Z,989.45
2016-11-18T12:24:45.707Z,989.42
2016-11-18T12:26:00.684Z,989.4
2016-11-18T12:27:16.791Z,989.48
2016-11-18T12:28:31.722Z,989.45
2016-11-18T12:29:46.376Z,989.43
2016-11-18T12:31:00.200Z,989.41
2016-11-18T12:32:14.891Z,989.38
2016-11-18T12:33:30.039Z,989.6
2016-11-18T12:34:47.000Z,989.55
2016-11-18T12:36:01.082Z,989.61
2016-11-18T12:37:17.965Z,989.67
2016-11-18T12:38:33.030Z,989.65
2016-11-18T12:39:49.846Z,989.68
2016-11-18T12:41:03.432Z,989.56
2016-11-18T12:42:18.442Z,989.69
2016-11-18T12:43:33.563Z,989.59
2016-11-18T12:44:49.093Z,989.57
2016-11-18T12:46:04.015Z,989.53
2016-11-18T12:47:18.903Z,989.5
2016-11-18T12:48:32.022Z,989.48
2016-11-18T12:49:45.342Z,989.48
2016-11-18T12:51:01.747Z,989.46
2016-11-18T12:52:19.023Z,989.48
2016-11-18T12:53:35.982Z,989.48
2016-11-18T12:54:49.991Z,989.41
2016-11-18T12:56:04.611Z,989.44
2016-11-18T12:57:19.187Z,989.4
2016-11-18T12:58:34.060Z,989.39
2016-11-18T12:59:50.815Z,989.46
2016-11-18T13:01:07.340Z,989.5
2016-11-18T13:02:22.211Z,989.46
2016-11-18T13:03:38.775Z,989.52
2016-11-18T13:04:54.309Z,989.54
2016-11-18T13:06:10.242Z,989.5
2016-11-18T13:07:26.626Z,989.5
2016-11-18T13:08:42.943Z,989.45
2016-11-18T13:09:57.819Z,989.43
2016-11-18T13:11:11.033Z,989.41
2016-11-18T13:12:27.322Z,989.44
2016-11-18T13:13:43.061Z,989.45
2016-11-18T13:14:59.858Z,989.41
2016-11-18T13:16:14.482Z,989.34
2016-11-18T13:17:30.378Z,989.4
2016-11-18T13:18:45.165Z,989.41
2016-11-18T13:20:01.057Z,989.48
2016-11-18T13:21:16.871Z,989.49
2016-11-18T13:22:32.509Z,989.51
2016-11-18T13:23:48.375Z,989.54
2016-11-18T13:25:03.636Z,989.4
2016-11-18T13:26:19.676Z,989.4
2016-11-18T13:27:35.563Z,989.52
2016-11-18T13:28:50.484Z,989.51
2016-11-18T13:30:05.249Z,989.47
2016-11-18T13:31:18.960Z,989.48
2016-11-18T13:32:32.624Z,989.45
2016-11-18T13:33:49.903Z,989.33
2016-11-18T13:35:06.092Z,989.36
2016-11-18T13:36:20.944Z,989.38
2016-11-18T13:37:37.435Z,989.41
2016-11-18T13:38:52.540Z,989.43
2016-11-18T13:40:08.543Z,989.62
2016-11-18T13:41:25.439Z,989.61
2016-11-18T13:42:41.129Z,989.53
2016-11-18T13:43:55.101Z,989.61
2016-11-18T13:45:11.493Z,989.72
2016-11-18T13:46:24.651Z,989.67
2016-11-18T13:47:41.211Z,989.71
2016-11-18T13:48:54.455Z,989.77
2016-11-18T13:50:11.205Z,989.76
2016-11-18T13:51:27.790Z,989.83
2016-11-18T13:52:43.667Z,989.85
2016-11-18T13:53:59.201Z,989.88
2016-11-18T13:55:16.455Z,989.97
2016-11-18T13:56:31.432Z,990.12
2016-11-18T13:57:47.796Z,990.06
2016-11-18T13:59:04.794Z,990.06
2016-11-18T14:00:21.336Z,990.08
2016-11-18T14:01:36.820Z,990.13
2016-11-18T14:02:53.128Z,990.17
2016-11-18T14:04:09.417Z,990.14
2016-11-18T14:05:25.989Z,990.17
2016-11-18T14:06:42.919Z,990.28
2016-11-18T14:07:58.084Z,990.21
2016-11-18T14:09:14.385Z,990.21
2016-11-18T14:10:27.908Z,990.19
2016-11-18T14:11:44.053Z,990.22
2016-11-18T14:12:59.318Z,990.36
2016-11-18T14:14:12.871Z,990.37
2016-11-18T14:15:28.190Z,990.45
2016-11-18T14:16:43.685Z,990.45
2016-11-18T14:17:58.544Z,990.46
2016-11-18T14:19:15.062Z,990.5
2016-11-18T14:20:29.954Z,990.53
2016-11-18T14:21:45.597Z,990.64
2016-11-18T14:23:00.656Z,990.63
2016-11-18T14:24:13.699Z,990.65
2016-11-18T14:25:29.188Z,990.74
2016-11-18T14:26:44.283Z,990.75
2016-11-18T14:27:59.411Z,990.7
2016-11-18T14:29:16.545Z,990.65
2016-11-18T14:30:31.795Z,990.69
2016-11-18T14:31:48.367Z,990.73
2016-11-18T14:33:04.411Z,990.64
2016-11-18T14:34:16.146Z,990.56
2016-11-18T14:35:30.816Z,990.63
2016-11-18T14:36:47.230Z,990.68
2016-11-18T14:38:04.363Z,990.67
2016-11-18T14:39:17.402Z,990.8
2016-11-18T14:40:34.200Z,990.85
2016-11-18T14:41:49.475Z,990.92
2016-11-18T14:43:06.047Z,990.98
2016-11-18T14:44:22.348Z,990.9
2016-11-18T14:45:38.663Z,990.89
2016-11-18T14:46:55.210Z,990.98
2016-11-18T14:48:09.060Z,991.03
2016-11-18T14:49:25.629Z,991.03
2016-11-18T14:50:40.879Z,991.03
2016-11-18T14:51:55.856Z,991.07
2016-11-18T14:53:12.613Z,991.11
2016-11-18T14:54:27.461Z,991.06
2016-11-18T14:55:42.065Z,991.03
2016-11-18T14:56:58.620Z,991.06
2016-11-18T14:58:15.340Z,991.06
2016-11-18T14:59:31.902Z,991.11
2016-11-18T15:00:46.981Z,991.12
2016-11-18T15:02:00.269Z,991.07
2016-11-18T15:03:15.427Z,991.2
2016-11-18T15:04:31.529Z,991.16
2016-11-18T15:05:47.882Z,991.23
2016-11-18T15:07:01.118Z,991.15
2016-11-18T15:08:17.080Z,991.2
2016-11-18T15:09:32.444Z,991.22
2016-11-18T15:10:47.917Z,991.25
2016-11-18T15:12:02.657Z,991.31
2016-11-18T15:13:19.484Z,991.21
2016-11-18T15:14:35.879Z,991.27
2016-11-18T15:15:52.420Z,991.33
2016-11-18T15:17:07.105Z,991.29
2016-11-18T15:18:23.275Z,991.23
2016-11-18T15:19:39.165Z,991.28
2016-11-18T15:20:55.881Z,991.25
2016-11-18T15:22:10.554Z,991.31
2016-11-18T15:23:26.574Z,991.32
2016-11-18T15:24:42.865Z,991.42
2016-11-18T15:25:58.313Z,991.3
2016-11-18T15:27:13.586Z,991.31
2016-11-18T15:28:28.682Z,991.37
2016-11-18T15:29:44.186Z,991.37
2016-11-18T15:30:59.107Z,991.41
2016-11-18T15:32:15.721Z,991.43
2016-11-18T15:33:32.022Z,991.49
2016-11-18T15:34:48.714Z,991.43
2016-11-18T15:36:05.329Z,991.47
2016-11-18T15:37:18.750Z,991.4
2016-11-18T15:38:34.355Z,991.49
2016-11-18T15:39:49.026Z,991.46
2016-11-18T15:41:05.067Z,991.47
2016-11-18T15:42:19.740Z,991.49
2016-11-18T15:43:35.223Z,991.53
2016-11-18T15:44:51.390Z,991.57